sensor_id;sensor_type;location;lat;lon;timestamp;pressure;altitude;pressure_sealevel;temperature;humidity
33404;BME280;19751;40.274;18.268;2023-06-19T00:00:07;101101.78;;;20.95;100.00
33404;BME280;19751;40.274;18.268;2023-06-19T00:02:41;101110.81;;;20.96;100.00
33404;BME280;19751;40.274;18.268;2023-06-19T00:05:08;101101.19;;;20.93;100.00
33404;BME280;19751;40.274;18.268;2023-06-19T00:07:35;101102.28;;;20.92;100.00
33404;BME280;19751;40.274;18.268;2023-06-19T00:10:01;101102.28;;;20.92;100.00
33404;BME280;19751;40.274;18.268;2023-06-19T00:12:27;101109.66;;;20.92;100.00
33404;BME280;19751;40.274;18.268;2023-06-19T00:14:52;101115.63;;;20.89;100.00
33404;BME280;19751;40.274;18.268;2023-06-19T00:17:17;101109.66;;;20.92;100.00
33404;BME280;19751;40.274;18.268;2023-06-19T00:19:44;101109.41;;;20.93;100.00
33404;BME280;19751;40.274;18.268;2023-06-19T00:22:09;101114.88;;;20.93;100.00
33404;BME280;19751;40.274;18.268;2023-06-19T00:24:35;101105.28;;;20.91;100.00
33404;BME280;19751;40.274;18.268;2023-06-19T00:27:00;101106.59;;;20.88;100.00
33404;BME280;19751;40.274;18.268;2023-06-19T00:29:31;101099.78;;;20.91;100.00
33404;BME280;19751;40.274;18.268;2023-06-19T00:31:57;101106.94;;;20.92;100.00
33404;BME280;19751;40.274;18.268;2023-06-19T00:34:22;101111.56;;;20.91;100.00
33404;BME280;19751;40.274;18.268;2023-06-19T00:36:51;101106.59;;;20.88;100.00
33404;BME280;19751;40.274;18.268;2023-06-19T00:39:21;101110.41;;;20.87;100.00
33404;BME280;19751;40.274;18.268;2023-06-19T00:41:47;101100.22;;;20.82;100.00
33404;BME280;19751;40.274;18.268;2023-06-19T00:44:13;101100.38;;;20.76;100.00
33404;BME280;19751;40.274;18.268;2023-06-19T00:46:40;101097.06;;;20.74;100.00
33404;BME280;19751;40.274;18.268;2023-06-19T00:49:07;101095.38;;;20.73;100.00
33404;BME280;19751;40.274;18.268;2023-06-19T00:51:33;101093.16;;;20.70;100.00
33404;BME280;19751;40.274;18.268;2023-06-19T00:53:58;101097.13;;;20.62;100.00
33404;BME280;19751;40.274;18.268;2023-06-19T00:56:24;101093.78;;;20.60;100.00
33404;BME280;19751;40.274;18.268;2023-06-19T00:58:52;101093.22;;;20.58;100.00
33404;BME280;19751;40.274;18.268;2023-06-19T01:01:19;101088.84;;;20.57;100.00
33404;BME280;19751;40.274;18.268;2023-06-19T01:03:46;101095.63;;;20.54;100.00
33404;BME280;19751;40.274;18.268;2023-06-19T01:06:20;101082.44;;;20.51;100.00
33404;BME280;19751;40.274;18.268;2023-06-19T01:08:50;101086.00;;;20.52;100.00
33404;BME280;19751;40.274;18.268;2023-06-19T01:11:21;101087.53;;;20.48;100.00
33404;BME280;19751;40.274;18.268;2023-06-19T01:14:06;101084.63;;;20.38;100.00
33404;BME280;19751;40.274;18.268;2023-06-19T01:16:33;101084.28;;;20.34;100.00
33404;BME280;19751;40.274;18.268;2023-06-19T01:18:59;101085.84;;;20.30;100.00
33404;BME280;19751;40.274;18.268;2023-06-19T01:21:25;101092.41;;;20.29;100.00
33404;BME280;19751;40.274;18.268;2023-06-19T01:23:50;101082.38;;;20.34;100.00
33404;BME280;19751;40.274;18.268;2023-06-19T01:26:16;101090.09;;;20.38;100.00
33404;BME280;19751;40.274;18.268;2023-06-19T01:28:44;101089.28;;;20.37;100.00
33404;BME280;19751;40.274;18.268;2023-06-19T01:31:26;101091.28;;;20.42;100.00
33404;BME280;19751;40.274;18.268;2023-06-19T01:33:55;101096.13;;;20.51;100.00
33404;BME280;19751;40.274;18.268;2023-06-19T01:36:23;101095.13;;;20.57;100.00
33404;BME280;19751;40.274;18.268;2023-06-19T01:38:50;101079.22;;;20.54;100.00
33404;BME280;19751;40.274;18.268;2023-06-19T01:41:17;101086.63;;;20.42;100.00
33404;BME280;19751;40.274;18.268;2023-06-19T01:43:45;101080.94;;;20.32;100.00
33404;BME280;19751;40.274;18.268;2023-06-19T01:46:11;101088.72;;;20.23;100.00
33404;BME280;19751;40.274;18.268;2023-06-19T01:48:38;101090.19;;;20.14;100.00
33404;BME280;19751;40.274;18.268;2023-06-19T01:51:04;101080.59;;;20.11;100.00
33404;BME280;19751;40.274;18.268;2023-06-19T01:53:30;101084.72;;;20.14;100.00
33404;BME280;19751;40.274;18.268;2023-06-19T01:55:57;101083.56;;;20.10;100.00
33404;BME280;19751;40.274;18.268;2023-06-19T01:58:23;101088.28;;;20.15;100.00
33404;BME280;19751;40.274;18.268;2023-06-19T02:00:48;101086.38;;;20.15;100.00
33404;BME280;19751;40.274;18.268;2023-06-19T02:03:14;101085.41;;;20.21;100.00
33404;BME280;19751;40.274;18.268;2023-06-19T02:05:39;101088.59;;;20.30;100.00
33404;BME280;19751;40.274;18.268;2023-06-19T02:08:05;101088.19;;;20.38;100.00
33404;BME280;19751;40.274;18.268;2023-06-19T02:10:31;101091.59;;;20.45;100.00
33404;BME280;19751;40.274;18.268;2023-06-19T02:12:57;101081.03;;;20.49;100.00
33404;BME280;19751;40.274;18.268;2023-06-19T02:15:22;101085.53;;;20.43;98.74
33404;BME280;19751;40.274;18.268;2023-06-19T02:17:48;101080.06;;;20.43;98.96
33404;BME280;19751;40.274;18.268;2023-06-19T02:20:14;101080.41;;;20.47;98.38
33404;BME280;19751;40.274;18.268;2023-06-19T02:22:40;101090.63;;;20.51;97.95
33404;BME280;19751;40.274;18.268;2023-06-19T02:25:06;101091.56;;;20.57;96.63
33404;BME280;19751;40.274;18.268;2023-06-19T02:27:31;101096.94;;;20.52;97.69
33404;BME280;19751;40.274;18.268;2023-06-19T02:29:57;101091.97;;;20.49;98.79
33404;BME280;19751;40.274;18.268;2023-06-19T02:32:23;101088.09;;;20.33;99.26
33404;BME280;19751;40.274;18.268;2023-06-19T02:34:48;101083.91;;;20.14;97.41
33404;BME280;19751;40.274;18.268;2023-06-19T02:37:14;101092.00;;;20.08;95.15
33404;BME280;19751;40.274;18.268;2023-06-19T02:39:39;101094.38;;;20.17;94.89
33404;BME280;19751;40.274;18.268;2023-06-19T02:42:05;101095.38;;;20.27;93.32
33404;BME280;19751;40.274;18.268;2023-06-19T02:44:31;101099.28;;;20.31;94.08
33404;BME280;19751;40.274;18.268;2023-06-19T02:46:57;101101.66;;;20.28;95.70
33404;BME280;19751;40.274;18.268;2023-06-19T02:49:22;101099.56;;;20.18;96.76
33404;BME280;19751;40.274;18.268;2023-06-19T02:51:48;101113.06;;;20.08;96.70
33404;BME280;19751;40.274;18.268;2023-06-19T02:54:13;101102.00;;;20.03;96.22
33404;BME280;19751;40.274;18.268;2023-06-19T02:56:39;101110.13;;;19.98;94.25
33404;BME280;19751;40.274;18.268;2023-06-19T02:59:04;101115.47;;;19.93;92.58
33404;BME280;19751;40.274;18.268;2023-06-19T03:01:29;101107.53;;;19.91;90.09
33404;BME280;19751;40.274;18.268;2023-06-19T03:03:55;101099.34;;;19.91;88.39
33404;BME280;19751;40.274;18.268;2023-06-19T03:06:20;101106.56;;;19.97;88.08
33404;BME280;19751;40.274;18.268;2023-06-19T03:08:46;101116.38;;;20.10;87.02
33404;BME280;19751;40.274;18.268;2023-06-19T03:11:11;101108.94;;;20.22;86.33
33404;BME280;19751;40.274;18.268;2023-06-19T03:16:11;101099.88;;;20.33;86.34
33404;BME280;19751;40.274;18.268;2023-06-19T03:18:37;101109.03;;;20.27;87.02
33404;BME280;19751;40.274;18.268;2023-06-19T03:21:02;101105.66;;;20.20;86.71
33404;BME280;19751;40.274;18.268;2023-06-19T03:23:28;101107.22;;;20.16;86.33
33404;BME280;19751;40.274;18.268;2023-06-19T03:25:53;101105.13;;;20.23;85.50
33404;BME280;19751;40.274;18.268;2023-06-19T03:28:19;101108.81;;;20.29;84.79
33404;BME280;19751;40.274;18.268;2023-06-19T03:30:44;101113.56;;;20.33;84.15
33404;BME280;19751;40.274;18.268;2023-06-19T03:33:10;101120.75;;;20.40;83.38
33404;BME280;19751;40.274;18.268;2023-06-19T03:35:35;101110.66;;;20.40;82.57
33404;BME280;19751;40.274;18.268;2023-06-19T03:38:01;101108.06;;;20.33;82.40
33404;BME280;19751;40.274;18.268;2023-06-19T03:40:27;101122.16;;;20.25;81.48
33404;BME280;19751;40.274;18.268;2023-06-19T03:42:53;101116.69;;;20.25;82.05
33404;BME280;19751;40.274;18.268;2023-06-19T03:45:18;101125.22;;;20.29;81.77
33404;BME280;19751;40.274;18.268;2023-06-19T03:47:44;101128.06;;;20.34;81.29
33404;BME280;19751;40.274;18.268;2023-06-19T03:50:09;101133.88;;;20.38;81.09
33404;BME280;19751;40.274;18.268;2023-06-19T03:52:39;101128.31;;;20.32;80.79
33404;BME280;19751;40.274;18.268;2023-06-19T03:55:05;101131.75;;;20.28;81.05
33404;BME280;19751;40.274;18.268;2023-06-19T03:57:30;101134.16;;;20.24;80.86
33404;BME280;19751;40.274;18.268;2023-06-19T03:59:56;101137.47;;;20.26;80.90
33404;BME280;19751;40.274;18.268;2023-06-19T04:02:21;101137.34;;;20.33;80.57
33404;BME280;19751;40.274;18.268;2023-06-19T04:04:47;101134.94;;;20.36;79.72
33404;BME280;19751;40.274;18.268;2023-06-19T04:07:13;101134.44;;;20.40;79.25
33404;BME280;19751;40.274;18.268;2023-06-19T04:09:39;101142.31;;;20.36;77.34
33404;BME280;19751;40.274;18.268;2023-06-19T04:12:04;101141.13;;;20.32;77.58
33404;BME280;19751;40.274;18.268;2023-06-19T04:14:30;101139.97;;;20.28;77.88
33404;BME280;19751;40.274;18.268;2023-06-19T04:16:55;101140.81;;;20.28;78.63
33404;BME280;19751;40.274;18.268;2023-06-19T04:19:21;101137.47;;;20.26;78.28
33404;BME280;19751;40.274;18.268;2023-06-19T04:21:46;101152.59;;;20.29;77.73
33404;BME280;19751;40.274;18.268;2023-06-19T04:24:12;101149.19;;;20.39;77.52
33404;BME280;19751;40.274;18.268;2023-06-19T04:26:37;101142.88;;;20.50;77.75
33404;BME280;19751;40.274;18.268;2023-06-19T04:29:03;101136.19;;;20.57;77.04
33404;BME280;19751;40.274;18.268;2023-06-19T04:31:28;101140.31;;;20.60;74.96
33404;BME280;19751;40.274;18.268;2023-06-19T04:33:55;101132.94;;;20.60;74.51
33404;BME280;19751;40.274;18.268;2023-06-19T04:36:22;101139.09;;;20.68;74.44
33404;BME280;19751;40.274;18.268;2023-06-19T04:38:48;101129.66;;;20.75;74.60
33404;BME280;19751;40.274;18.268;2023-06-19T04:41:13;101136.63;;;20.83;74.00
33404;BME280;19751;40.274;18.268;2023-06-19T04:43:39;101134.78;;;20.89;73.59
33404;BME280;19751;40.274;18.268;2023-06-19T04:46:07;101135.47;;;20.96;72.96
33404;BME280;19751;40.274;18.268;2023-06-19T04:48:32;101132.81;;;21.01;71.32
33404;BME280;19751;40.274;18.268;2023-06-19T04:51:01;101132.31;;;21.04;71.11
33404;BME280;19751;40.274;18.268;2023-06-19T04:53:27;101138.13;;;21.07;71.44
33404;BME280;19751;40.274;18.268;2023-06-19T04:55:53;101145.09;;;21.15;71.97
33404;BME280;19751;40.274;18.268;2023-06-19T04:58:20;101151.75;;;21.19;72.44
33404;BME280;19751;40.274;18.268;2023-06-19T05:00:46;101150.66;;;21.20;72.15
33404;BME280;19751;40.274;18.268;2023-06-19T05:03:17;101151.75;;;21.19;72.43
33404;BME280;19751;40.274;18.268;2023-06-19T05:05:43;101150.81;;;21.14;71.95
33404;BME280;19751;40.274;18.268;2023-06-19T05:08:09;101156.56;;;21.12;73.13
33404;BME280;19751;40.274;18.268;2023-06-19T05:10:34;101168.00;;;21.09;73.66
33404;BME280;19751;40.274;18.268;2023-06-19T05:13:00;101168.25;;;21.07;74.68
33404;BME280;19751;40.274;18.268;2023-06-19T05:15:27;101173.47;;;21.09;75.36
33404;BME280;19751;40.274;18.268;2023-06-19T05:17:53;101175.72;;;21.12;76.41
33404;BME280;19751;40.274;18.268;2023-06-19T05:20:19;101170.59;;;21.16;77.14
33404;BME280;19751;40.274;18.268;2023-06-19T05:22:45;101179.22;;;21.24;77.09
33404;BME280;19751;40.274;18.268;2023-06-19T05:25:11;101186.41;;;21.30;77.68
33404;BME280;19751;40.274;18.268;2023-06-19T05:27:36;101179.47;;;21.40;77.56
33404;BME280;19751;40.274;18.268;2023-06-19T05:30:03;101178.81;;;21.49;77.76
33404;BME280;19751;40.274;18.268;2023-06-19T05:32:29;101180.28;;;21.57;78.34
33404;BME280;19751;40.274;18.268;2023-06-19T05:34:54;101173.28;;;21.66;78.83
33404;BME280;19751;40.274;18.268;2023-06-19T05:37:20;101178.34;;;21.74;79.34
33404;BME280;19751;40.274;18.268;2023-06-19T05:39:47;101168.03;;;21.81;80.62
33404;BME280;19751;40.274;18.268;2023-06-19T05:42:13;101179.28;;;21.85;83.29
33404;BME280;19751;40.274;18.268;2023-06-19T05:44:38;101176.63;;;21.90;84.10
33404;BME280;19751;40.274;18.268;2023-06-19T05:47:05;101176.44;;;21.97;87.10
33404;BME280;19751;40.274;18.268;2023-06-19T05:49:31;101173.75;;;22.02;89.08
33404;BME280;19751;40.274;18.268;2023-06-19T05:51:56;101174.41;;;22.09;91.38
33404;BME280;19751;40.274;18.268;2023-06-19T05:54:25;101178.91;;;22.15;94.03
33404;BME280;19751;40.274;18.268;2023-06-19T05:56:50;101184.44;;;22.20;95.74
33404;BME280;19751;40.274;18.268;2023-06-19T05:59:16;101185.91;;;22.28;97.92
33404;BME280;19751;40.274;18.268;2023-06-19T06:01:41;101184.63;;;22.36;100.00
33404;BME280;19751;40.274;18.268;2023-06-19T06:04:07;101185.81;;;22.45;100.00
33404;BME280;19751;40.274;18.268;2023-06-19T06:06:32;101186.19;;;22.53;100.00
33404;BME280;19751;40.274;18.268;2023-06-19T06:08:58;101186.56;;;22.62;100.00
33404;BME280;19751;40.274;18.268;2023-06-19T06:11:23;101180.88;;;22.69;100.00
33404;BME280;19751;40.274;18.268;2023-06-19T06:13:49;101187.78;;;22.76;100.00
33404;BME280;19751;40.274;18.268;2023-06-19T06:16:14;101189.78;;;22.81;100.00
33404;BME280;19751;40.274;18.268;2023-06-19T06:18:40;101188.44;;;22.89;100.00
33404;BME280;19751;40.274;18.268;2023-06-19T06:21:06;101192.13;;;22.94;100.00
33404;BME280;19751;40.274;18.268;2023-06-19T06:23:31;101196.84;;;22.99;100.00
33404;BME280;19751;40.274;18.268;2023-06-19T06:25:57;101197.97;;;23.03;100.00
33404;BME280;19751;40.274;18.268;2023-06-19T06:28:27;101204.31;;;23.08;100.00
33404;BME280;19751;40.274;18.268;2023-06-19T06:30:53;101206.28;;;23.13;100.00
33404;BME280;19751;40.274;18.268;2023-06-19T06:33:19;101209.91;;;23.19;100.00
33404;BME280;19751;40.274;18.268;2023-06-19T06:35:44;101208.03;;;23.24;100.00
33404;BME280;19751;40.274;18.268;2023-06-19T06:38:09;101210.25;;;23.27;100.00
33404;BME280;19751;40.274;18.268;2023-06-19T06:40:35;101213.03;;;23.32;100.00
33404;BME280;19751;40.274;18.268;2023-06-19T06:43:00;101216.66;;;23.38;100.00
33404;BME280;19751;40.274;18.268;2023-06-19T06:45:26;101213.69;;;23.45;100.00
33404;BME280;19751;40.274;18.268;2023-06-19T06:47:51;101217.56;;;23.49;100.00
33404;BME280;19751;40.274;18.268;2023-06-19T06:50:17;101219.25;;;23.55;100.00
33404;BME280;19751;40.274;18.268;2023-06-19T06:52:42;101220.13;;;23.61;100.00
33404;BME280;19751;40.274;18.268;2023-06-19T06:55:08;101216.00;;;23.63;100.00
33404;BME280;19751;40.274;18.268;2023-06-19T06:57:34;101219.91;;;23.67;100.00
33404;BME280;19751;40.274;18.268;2023-06-19T07:00:00;101226.84;;;23.75;100.00
33404;BME280;19751;40.274;18.268;2023-06-19T07:02:26;101229.06;;;23.78;100.00
33404;BME280;19751;40.274;18.268;2023-06-19T07:04:51;101221.38;;;23.80;100.00
33404;BME280;19751;40.274;18.268;2023-06-19T07:07:18;101225.50;;;23.83;100.00
33404;BME280;19751;40.274;18.268;2023-06-19T07:09:46;101223.88;;;23.87;100.00
33404;BME280;19751;40.274;18.268;2023-06-19T07:12:12;101224.19;;;23.90;100.00
33404;BME280;19751;40.274;18.268;2023-06-19T07:14:38;101226.41;;;23.93;100.00
33404;BME280;19751;40.274;18.268;2023-06-19T07:17:03;101223.94;;;23.97;100.00
33404;BME280;19751;40.274;18.268;2023-06-19T07:19:32;101223.94;;;23.97;100.00
33404;BME280;19751;40.274;18.268;2023-06-19T07:21:57;101225.91;;;24.01;100.00
33404;BME280;19751;40.274;18.268;2023-06-19T07:24:23;101215.16;;;24.05;100.00
33404;BME280;19751;40.274;18.268;2023-06-19T07:26:49;101228.41;;;24.13;100.00
33404;BME280;19751;40.274;18.268;2023-06-19T07:29:14;101230.09;;;24.14;100.00
33404;BME280;19751;40.274;18.268;2023-06-19T07:31:40;101225.72;;;24.18;100.00
33404;BME280;19751;40.274;18.268;2023-06-19T07:34:08;101233.16;;;24.23;100.00
33404;BME280;19751;40.274;18.268;2023-06-19T07:36:33;101231.22;;;24.23;100.00
33404;BME280;19751;40.274;18.268;2023-06-19T07:38:59;101230.69;;;24.26;100.00
33404;BME280;19751;40.274;18.268;2023-06-19T07:41:24;101226.31;;;24.36;100.00
33404;BME280;19751;40.274;18.268;2023-06-19T07:43:50;101225.25;;;24.42;100.00
33404;BME280;19751;40.274;18.268;2023-06-19T07:46:16;101233.81;;;24.45;100.00
33404;BME280;19751;40.274;18.268;2023-06-19T07:48:42;101229.41;;;24.49;100.00
33404;BME280;19751;40.274;18.268;2023-06-19T07:51:07;101230.25;;;24.50;100.00
33404;BME280;19751;40.274;18.268;2023-06-19T07:53:33;101226.97;;;24.53;100.00
33404;BME280;19751;40.274;18.268;2023-06-19T07:55:58;101237.44;;;24.56;100.00
33404;BME280;19751;40.274;18.268;2023-06-19T07:58:24;101239.91;;;24.63;100.00
33404;BME280;19751;40.274;18.268;2023-06-19T08:00:49;101237.47;;;24.66;100.00
33404;BME280;19751;40.274;18.268;2023-06-19T08:03:15;101234.44;;;24.68;100.00
33404;BME280;19751;40.274;18.268;2023-06-19T08:05:40;101232.78;;;24.67;100.00
33404;BME280;19751;40.274;18.268;2023-06-19T08:08:06;101234.16;;;24.69;100.00
33404;BME280;19751;40.274;18.268;2023-06-19T08:10:31;101241.59;;;24.74;100.00
33404;BME280;19751;40.274;18.268;2023-06-19T08:12:57;101250.16;;;24.83;100.00
33404;BME280;19751;40.274;18.268;2023-06-19T08:15:22;101246.06;;;24.90;100.00
33404;BME280;19751;40.274;18.268;2023-06-19T08:17:48;101246.06;;;24.90;99.84
33404;BME280;19751;40.274;18.268;2023-06-19T08:20:13;101246.34;;;24.94;100.00
33404;BME280;19751;40.274;18.268;2023-06-19T08:22:39;101248.00;;;24.95;99.55
33404;BME280;19751;40.274;18.268;2023-06-19T08:25:05;101244.41;;;24.94;98.19
33404;BME280;19751;40.274;18.268;2023-06-19T08:27:32;101241.94;;;24.93;98.52
33404;BME280;19751;40.274;18.268;2023-06-19T08:29:57;101250.75;;;24.95;99.36
33404;BME280;19751;40.274;18.268;2023-06-19T08:32:23;101244.69;;;24.98;97.59
33404;BME280;19751;40.274;18.268;2023-06-19T08:34:48;101257.94;;;25.01;97.57
33404;BME280;19751;40.274;18.268;2023-06-19T08:37:14;101245.50;;;25.03;99.67
33404;BME280;19751;40.274;18.268;2023-06-19T08:39:39;101233.94;;;25.07;99.83
33404;BME280;19751;40.274;18.268;2023-06-19T08:42:08;101249.09;;;25.04;97.70
33404;BME280;19751;40.274;18.268;2023-06-19T08:44:35;101248.56;;;25.07;97.66
33404;BME280;19751;40.274;18.268;2023-06-19T08:47:04;101248.88;;;25.11;94.54
33404;BME280;19751;40.274;18.268;2023-06-19T08:49:31;101244.19;;;25.11;91.99
33404;BME280;19751;40.274;18.268;2023-06-19T08:51:58;101241.41;;;25.16;95.58
33404;BME280;19751;40.274;18.268;2023-06-19T08:54:24;101245.28;;;25.20;96.50
33404;BME280;19751;40.274;18.268;2023-06-19T08:56:50;101244.19;;;25.26;98.01
33404;BME280;19751;40.274;18.268;2023-06-19T08:59:17;101254.66;;;25.29;97.45
33404;BME280;19751;40.274;18.268;2023-06-19T09:01:51;101235.63;;;25.33;97.80
33404;BME280;19751;40.274;18.268;2023-06-19T09:04:21;101243.66;;;25.35;97.34
33404;BME280;19751;40.274;18.268;2023-06-19T09:06:49;101254.38;;;25.41;95.33
33404;BME280;19751;40.274;18.268;2023-06-19T09:09:15;101244.44;;;25.45;95.27
33404;BME280;19751;40.274;18.268;2023-06-19T09:11:41;101245.56;;;25.49;93.42
33404;BME280;19751;40.274;18.268;2023-06-19T09:14:10;101248.88;;;25.51;93.96
33404;BME280;19751;40.274;18.268;2023-06-19T09:16:41;101251.06;;;25.49;96.33
33404;BME280;19751;40.274;18.268;2023-06-19T09:19:07;101249.69;;;25.52;97.15
33404;BME280;19751;40.274;18.268;2023-06-19T09:21:35;101243.63;;;25.55;97.79
33404;BME280;19751;40.274;18.268;2023-06-19T09:24:05;101239.22;;;25.59;97.84
33404;BME280;19751;40.274;18.268;2023-06-19T09:26:31;101231.75;;;25.65;97.42
33404;BME280;19751;40.274;18.268;2023-06-19T09:28:56;101235.34;;;25.65;95.08
33404;BME280;19751;40.274;18.268;2023-06-19T09:31:32;101240.84;;;25.65;94.53
33404;BME280;19751;40.274;18.268;2023-06-19T09:33:58;101235.91;;;25.67;91.21
33404;BME280;19751;40.274;18.268;2023-06-19T09:36:25;101241.66;;;25.71;92.84
33404;BME280;19751;40.274;18.268;2023-06-19T09:38:52;101239.75;;;25.71;95.74
33404;BME280;19751;40.274;18.268;2023-06-19T09:41:19;101238.09;;;25.75;92.14
33404;BME280;19751;40.274;18.268;2023-06-19T09:43:47;101232.03;;;25.78;89.44
33404;BME280;19751;40.274;18.268;2023-06-19T09:46:16;101233.69;;;25.80;88.33
33404;BME280;19751;40.274;18.268;2023-06-19T09:48:44;101240.03;;;25.80;85.25
33404;BME280;19751;40.274;18.268;2023-06-19T09:53:44;101240.00;;;25.90;82.11
33404;BME280;19751;40.274;18.268;2023-06-19T09:56:12;101244.16;;;25.93;82.11
33404;BME280;19751;40.274;18.268;2023-06-19T09:58:38;101241.66;;;25.91;81.11
33404;BME280;19751;40.274;18.268;2023-06-19T10:01:04;101239.44;;;25.93;81.12
33404;BME280;19751;40.274;18.268;2023-06-19T10:03:33;101242.19;;;25.98;81.77
33404;BME280;19751;40.274;18.268;2023-06-19T10:05:59;101243.00;;;26.04;80.67
33404;BME280;19751;40.274;18.268;2023-06-19T10:08:42;101241.63;;;26.07;78.51
33404;BME280;19751;40.274;18.268;2023-06-19T10:11:11;101247.94;;;26.12;78.78
33404;BME280;19751;40.274;18.268;2023-06-19T10:13:40;101243.78;;;26.20;78.12
33404;BME280;19751;40.274;18.268;2023-06-19T10:16:07;101242.09;;;26.24;78.17
33404;BME280;19751;40.274;18.268;2023-06-19T10:18:44;101240.16;;;26.24;75.92
33404;BME280;19751;40.274;18.268;2023-06-19T10:21:20;101238.50;;;26.23;73.62
33404;BME280;19751;40.274;18.268;2023-06-19T10:23:56;101247.34;;;26.20;73.31
33404;BME280;19751;40.274;18.268;2023-06-19T10:26:31;101241.00;;;26.20;72.46
33404;BME280;19751;40.274;18.268;2023-06-19T10:28:56;101239.91;;;26.21;70.30
33404;BME280;19751;40.274;18.268;2023-06-19T10:31:22;101241.28;;;26.23;67.19
33404;BME280;19751;40.274;18.268;2023-06-19T10:33:47;101243.47;;;26.26;65.64
33404;BME280;19751;40.274;18.268;2023-06-19T10:36:21;101245.69;;;26.30;64.84
33404;BME280;19751;40.274;18.268;2023-06-19T10:38:48;101242.34;;;26.33;64.31
33404;BME280;19751;40.274;18.268;2023-06-19T10:41:22;101248.13;;;26.36;63.11
33404;BME280;19751;40.274;18.268;2023-06-19T10:43:58;101233.50;;;26.36;59.31
33404;BME280;19751;40.274;18.268;2023-06-19T10:46:28;101238.47;;;26.39;59.29
33404;BME280;19751;40.274;18.268;2023-06-19T10:48:55;101237.34;;;26.45;57.79
33404;BME280;19751;40.274;18.268;2023-06-19T10:51:29;101245.03;;;26.53;58.63
33404;BME280;19751;40.274;18.268;2023-06-19T10:53:55;101234.53;;;26.55;60.15
33404;BME280;19751;40.274;18.268;2023-06-19T10:56:22;101231.78;;;26.55;60.34
33404;BME280;19751;40.274;18.268;2023-06-19T10:58:48;101233.94;;;26.58;59.99
33404;BME280;19751;40.274;18.268;2023-06-19T11:01:13;101235.03;;;26.62;57.94
33404;BME280;19751;40.274;18.268;2023-06-19T11:03:39;101235.03;;;26.62;58.17
33404;BME280;19751;40.274;18.268;2023-06-19T11:06:05;101229.75;;;26.66;58.99
33404;BME280;19751;40.274;18.268;2023-06-19T11:08:30;101231.66;;;26.75;59.04
33404;BME280;19751;40.274;18.268;2023-06-19T11:10:56;101227.22;;;26.80;56.47
33404;BME280;19751;40.274;18.268;2023-06-19T11:13:21;101226.09;;;26.81;53.31
33404;BME280;19751;40.274;18.268;2023-06-19T11:15:48;101218.03;;;26.89;52.37
33404;BME280;19751;40.274;18.268;2023-06-19T11:18:16;101224.31;;;26.95;52.34
33404;BME280;19751;40.274;18.268;2023-06-19T11:20:45;101226.00;;;26.96;50.79
33404;BME280;19751;40.274;18.268;2023-06-19T11:23:12;101225.16;;;26.95;49.05
33404;BME280;19751;40.274;18.268;2023-06-19T11:25:38;101222.06;;;27.02;49.35
33404;BME280;19751;40.274;18.268;2023-06-19T11:28:11;101218.44;;;27.07;49.40
33404;BME280;19751;40.274;18.268;2023-06-19T11:30:36;101215.09;;;27.15;49.96
33404;BME280;19751;40.274;18.268;2023-06-19T11:33:02;101216.16;;;27.19;50.21
33404;BME280;19751;40.274;18.268;2023-06-19T11:35:38;101211.19;;;27.21;49.69
33404;BME280;19751;40.274;18.268;2023-06-19T11:38:04;101214.75;;;27.21;48.82
33404;BME280;19751;40.274;18.268;2023-06-19T11:40:39;101213.59;;;27.27;48.44
33404;BME280;19751;40.274;18.268;2023-06-19T11:43:04;101213.03;;;27.31;47.28
33404;BME280;19751;40.274;18.268;2023-06-19T11:45:30;101209.69;;;27.34;47.00
33404;BME280;19751;40.274;18.268;2023-06-19T11:47:56;101211.38;;;27.30;47.00
33404;BME280;19751;40.274;18.268;2023-06-19T11:50:32;101208.31;;;27.31;47.13
33404;BME280;19751;40.274;18.268;2023-06-19T11:52:57;101196.44;;;27.31;46.60
33404;BME280;19751;40.274;18.268;2023-06-19T11:55:25;101202.22;;;27.34;46.21
33404;BME280;19751;40.274;18.268;2023-06-19T11:57:52;101197.44;;;27.40;45.31
33404;BME280;19751;40.274;18.268;2023-06-19T12:00:18;101195.16;;;27.47;45.31
33404;BME280;19751;40.274;18.268;2023-06-19T12:02:44;101197.28;;;27.55;45.68
33404;BME280;19751;40.274;18.268;2023-06-19T12:05:11;101196.13;;;27.61;45.58
33404;BME280;19751;40.274;18.268;2023-06-19T12:07:38;101195.78;;;27.68;45.25
33404;BME280;19751;40.274;18.268;2023-06-19T12:10:04;101193.84;;;27.68;44.88
33404;BME280;19751;40.274;18.268;2023-06-19T12:12:36;101199.34;;;27.73;44.75
33404;BME280;19751;40.274;18.268;2023-06-19T12:15:02;101195.94;;;27.82;45.28
33404;BME280;19751;40.274;18.268;2023-06-19T12:17:27;101192.81;;;27.88;44.92
33404;BME280;19751;40.274;18.268;2023-06-19T12:19:55;101196.91;;;27.91;44.71
33404;BME280;19751;40.274;18.268;2023-06-19T12:22:20;101193.50;;;27.99;44.73
33404;BME280;19751;40.274;18.268;2023-06-19T12:24:46;101196.50;;;28.03;43.95
33404;BME280;19751;40.274;18.268;2023-06-19T12:27:12;101191.75;;;28.08;43.73
33404;BME280;19751;40.274;18.268;2023-06-19T12:29:38;101189.41;;;28.15;43.45
33404;BME280;19751;40.274;18.268;2023-06-19T12:32:03;101186.31;;;28.22;42.89
33404;BME280;19751;40.274;18.268;2023-06-19T12:34:29;101186.00;;;28.23;42.79
33404;BME280;19751;40.274;18.268;2023-06-19T12:36:55;101188.19;;;28.27;42.67